Peter R. Cresswell — VCBZ — position and weather

sailwx.info

Track history (hours):
 
Tides and Currents Weather Stations Pressure Air Temp Water Temp Dewpoint Dewpoint Depression Visibility Wind Speed Wind Dir Waves Ship Positions

Peter R. Cresswell

ex Algowest

Last reported at 2014-Sep-29 09:32 UTC. Time now 2014-Oct-02 14:40 UTC.
Position N 42°52' W 079°15'.

Length 219.2 m; beam 23.2 m; draft 8.7 m.

Type: Ship. MMSI: 316001697.

Date/timePositionNaut miles runAvg speedWind from/ knotsBaromVisibWave heightAir tempDewpointWater temp
2014-Sep-29 09:32N 42°52' W 079°15'2110.6
2014-Sep-29 07:30N 42°38' W 079°37'1111.3
2014-Sep-29 06:33N 42°32' W 079°49'1111.1
2014-Sep-29 05:33N 42°26' W 080°02'1111.2
2014-Sep-29 04:33N 42°22' W 080°16'1110.9
2014-Sep-29 03:31N 42°18' W 080°30'1111.0
2014-Sep-29 02:33N 42°15' W 080°44'1411.0
2014-Sep-29 01:14N 42°10' W 081°02'247 7.3
2014-Sep-27 15:33N 45°48' W 083°42'1111.1
2014-Sep-27 14:33N 45°56' W 083°53'9 9.3
2014-Sep-27 13:34N 46°04' W 084°00'9 8.8
2014-Sep-27 12:33N 46°12' W 084°07'7 7.3
2014-Sep-27 11:33N 46°18' W 084°13'17 4.3
2014-Sep-27 07:33N 46°28' W 084°33'1210.6
2014-Sep-27 06:26N 46°36' W 084°45'1011.1
2014-Sep-27 05:34N 46°45' W 084°53'  
2014-Sep-24 11:21N 47°04' W 086°01'911.8
2014-Sep-24 10:33N 47°01' W 085°49'1212.0
2014-Sep-24 09:33N 46°56' W 085°32'1211.7
2014-Sep-24 08:33N 46°52' W 085°16'1111.6
2014-Sep-24 07:34N 46°48' W 085°00'1111.3
2014-Sep-24 06:33N 46°39' W 084°50'1211.8
2014-Sep-24 05:33N 46°31' W 084°38'8 8.2
2014-Sep-24 04:33N 46°29' W 084°26'8 4.2
2014-Sep-24 02:34N 46°26' W 084°15'8 8.1
2014-Sep-24 01:32N 46°19' W 084°08'9 7.7
2014-Sep-24 00:25N 46°11' W 084°05'8 9.7
2014-Sep-23 23:34N 46°04' W 083°59'10 9.7
2014-Sep-23 22:34N 45°55' W 083°52'  
Track history (hours):
 
Tides and Currents Weather Stations Pressure Air Temp Water Temp Dewpoint Dewpoint Depression Visibility Wind Speed Wind Dir Waves Ship Positions

Peter R. Cresswell

ex Algowest

Last reported at 2014-Sep-29 09:32 UTC. Time now 2014-Oct-02 14:40 UTC.
Position N 42°52' W 079°15'.

Length 219.2 m; beam 23.2 m; draft 8.7 m.

Type: Ship. MMSI: 316001697.

Date/timePositionNaut miles runAvg speedWind from/ knotsBaromVisibWave heightAir tempDewpointWater temp
2014-Sep-29 09:32N 42°52' W 079°15'2110.6
2014-Sep-29 07:30N 42°38' W 079°37'1111.3
2014-Sep-29 06:33N 42°32' W 079°49'1111.1
2014-Sep-29 05:33N 42°26' W 080°02'1111.2
2014-Sep-29 04:33N 42°22' W 080°16'1110.9
2014-Sep-29 03:31N 42°18' W 080°30'1111.0
2014-Sep-29 02:33N 42°15' W 080°44'1411.0
2014-Sep-29 01:14N 42°10' W 081°02'247 7.3
2014-Sep-27 15:33N 45°48' W 083°42'1111.1
2014-Sep-27 14:33N 45°56' W 083°53'9 9.3
2014-Sep-27 13:34N 46°04' W 084°00'9 8.8
2014-Sep-27 12:33N 46°12' W 084°07'7 7.3
2014-Sep-27 11:33N 46°18' W 084°13'17 4.3
2014-Sep-27 07:33N 46°28' W 084°33'1210.6
2014-Sep-27 06:26N 46°36' W 084°45'1011.1
2014-Sep-27 05:34N 46°45' W 084°53'  
2014-Sep-24 11:21N 47°04' W 086°01'911.8
2014-Sep-24 10:33N 47°01' W 085°49'1212.0
2014-Sep-24 09:33N 46°56' W 085°32'1211.7
2014-Sep-24 08:33N 46°52' W 085°16'1111.6
2014-Sep-24 07:34N 46°48' W 085°00'1111.3
2014-Sep-24 06:33N 46°39' W 084°50'1211.8
2014-Sep-24 05:33N 46°31' W 084°38'8 8.2
2014-Sep-24 04:33N 46°29' W 084°26'8 4.2
2014-Sep-24 02:34N 46°26' W 084°15'8 8.1
2014-Sep-24 01:32N 46°19' W 084°08'9 7.7
2014-Sep-24 00:25N 46°11' W 084°05'8 9.7
2014-Sep-23 23:34N 46°04' W 083°59'10 9.7
2014-Sep-23 22:34N 45°55' W 083°52'  

Dump ship's entire track history